sensor_id;sensor_type;location;lat;lon;timestamp;P1;durP1;ratioP1;P2;durP2;ratioP2
20488;SDS011;10403;54.092;12.122;2022-09-02T00:01:53;2.30;;;1.40;;
20488;SDS011;10403;54.092;12.122;2022-09-02T00:04:24;2.37;;;1.57;;
20488;SDS011;10403;54.092;12.122;2022-09-02T00:06:52;2.70;;;1.40;;
20488;SDS011;10403;54.092;12.122;2022-09-02T00:09:22;2.77;;;1.53;;
20488;SDS011;10403;54.092;12.122;2022-09-02T00:11:52;3.63;;;1.60;;
20488;SDS011;10403;54.092;12.122;2022-09-02T00:14:24;3.30;;;1.87;;
20488;SDS011;10403;54.092;12.122;2022-09-02T00:16:59;2.93;;;1.87;;
20488;SDS011;10403;54.092;12.122;2022-09-02T00:19:28;4.57;;;1.97;;
20488;SDS011;10403;54.092;12.122;2022-09-02T00:21:58;5.07;;;1.73;;
20488;SDS011;10403;54.092;12.122;2022-09-02T00:24:28;5.40;;;1.50;;
20488;SDS011;10403;54.092;12.122;2022-09-02T00:26:57;6.23;;;1.50;;
20488;SDS011;10403;54.092;12.122;2022-09-02T00:29:25;2.90;;;1.40;;
20488;SDS011;10403;54.092;12.122;2022-09-02T00:31:54;3.07;;;1.30;;
20488;SDS011;10403;54.092;12.122;2022-09-02T00:34:24;3.30;;;1.27;;
20488;SDS011;10403;54.092;12.122;2022-09-02T00:36:52;2.87;;;1.33;;
20488;SDS011;10403;54.092;12.122;2022-09-02T00:39:19;2.20;;;1.10;;
20488;SDS011;10403;54.092;12.122;2022-09-02T00:41:47;3.27;;;1.23;;
20488;SDS011;10403;54.092;12.122;2022-09-02T00:44:16;5.57;;;1.50;;
20488;SDS011;10403;54.092;12.122;2022-09-02T00:46:45;2.53;;;1.33;;
20488;SDS011;10403;54.092;12.122;2022-09-02T00:49:24;3.67;;;1.60;;
20488;SDS011;10403;54.092;12.122;2022-09-02T00:54:37;2.73;;;1.50;;
20488;SDS011;10403;54.092;12.122;2022-09-02T00:57:14;3.40;;;1.40;;
20488;SDS011;10403;54.092;12.122;2022-09-02T01:02:23;1.67;;;1.10;;
20488;SDS011;10403;54.092;12.122;2022-09-02T01:04:53;1.97;;;1.37;;
20488;SDS011;10403;54.092;12.122;2022-09-02T01:07:22;4.93;;;1.70;;
20488;SDS011;10403;54.092;12.122;2022-09-02T01:09:54;1.50;;;1.13;;
20488;SDS011;10403;54.092;12.122;2022-09-02T01:12:24;3.00;;;1.30;;
20488;SDS011;10403;54.092;12.122;2022-09-02T01:14:52;4.20;;;1.53;;
20488;SDS011;10403;54.092;12.122;2022-09-02T01:17:19;8.17;;;2.00;;
20488;SDS011;10403;54.092;12.122;2022-09-02T01:19:48;1.90;;;1.10;;
20488;SDS011;10403;54.092;12.122;2022-09-02T01:22:23;2.37;;;1.53;;
20488;SDS011;10403;54.092;12.122;2022-09-02T01:24:55;6.70;;;1.47;;
20488;SDS011;10403;54.092;12.122;2022-09-02T01:27:29;3.57;;;1.33;;
20488;SDS011;10403;54.092;12.122;2022-09-02T01:29:56;3.47;;;1.57;;
20488;SDS011;10403;54.092;12.122;2022-09-02T01:32:28;4.43;;;1.60;;
20488;SDS011;10403;54.092;12.122;2022-09-02T01:34:56;4.37;;;1.30;;
20488;SDS011;10403;54.092;12.122;2022-09-02T01:37:23;2.07;;;1.50;;
20488;SDS011;10403;54.092;12.122;2022-09-02T01:39:51;3.80;;;1.70;;
20488;SDS011;10403;54.092;12.122;2022-09-02T01:42:19;2.73;;;1.50;;
20488;SDS011;10403;54.092;12.122;2022-09-02T01:44:47;3.10;;;1.60;;
20488;SDS011;10403;54.092;12.122;2022-09-02T01:47:18;2.87;;;1.57;;
20488;SDS011;10403;54.092;12.122;2022-09-02T01:49:49;2.17;;;1.40;;
20488;SDS011;10403;54.092;12.122;2022-09-02T01:52:18;2.47;;;1.53;;
20488;SDS011;10403;54.092;12.122;2022-09-02T01:54:47;2.60;;;1.37;;
20488;SDS011;10403;54.092;12.122;2022-09-02T01:57:15;2.63;;;1.50;;
20488;SDS011;10403;54.092;12.122;2022-09-02T01:59:42;3.43;;;1.37;;
20488;SDS011;10403;54.092;12.122;2022-09-02T02:02:14;3.10;;;1.37;;
20488;SDS011;10403;54.092;12.122;2022-09-02T02:04:42;3.77;;;1.43;;
20488;SDS011;10403;54.092;12.122;2022-09-02T02:07:09;2.27;;;1.53;;
20488;SDS011;10403;54.092;12.122;2022-09-02T02:09:40;6.37;;;1.47;;
20488;SDS011;10403;54.092;12.122;2022-09-02T02:12:09;2.60;;;1.50;;
20488;SDS011;10403;54.092;12.122;2022-09-02T02:14:36;2.77;;;1.30;;
20488;SDS011;10403;54.092;12.122;2022-09-02T02:17:03;5.20;;;1.67;;
20488;SDS011;10403;54.092;12.122;2022-09-02T02:19:31;2.33;;;1.40;;
20488;SDS011;10403;54.092;12.122;2022-09-02T02:21:58;3.73;;;1.10;;
20488;SDS011;10403;54.092;12.122;2022-09-02T02:24:26;2.77;;;1.27;;
20488;SDS011;10403;54.092;12.122;2022-09-02T02:26:54;1.80;;;1.07;;
20488;SDS011;10403;54.092;12.122;2022-09-02T02:29:21;1.60;;;1.27;;
20488;SDS011;10403;54.092;12.122;2022-09-02T02:31:49;5.20;;;1.30;;
20488;SDS011;10403;54.092;12.122;2022-09-02T02:34:16;3.17;;;1.20;;
20488;SDS011;10403;54.092;12.122;2022-09-02T02:36:43;2.13;;;1.00;;
20488;SDS011;10403;54.092;12.122;2022-09-02T02:39:11;2.37;;;1.30;;
20488;SDS011;10403;54.092;12.122;2022-09-02T02:41:39;6.00;;;1.40;;
20488;SDS011;10403;54.092;12.122;2022-09-02T02:44:10;4.03;;;1.30;;
20488;SDS011;10403;54.092;12.122;2022-09-02T02:46:37;2.60;;;1.33;;
20488;SDS011;10403;54.092;12.122;2022-09-02T02:49:04;6.27;;;1.80;;
20488;SDS011;10403;54.092;12.122;2022-09-02T02:51:32;1.67;;;1.30;;
20488;SDS011;10403;54.092;12.122;2022-09-02T02:54:00;4.37;;;1.40;;
20488;SDS011;10403;54.092;12.122;2022-09-02T02:56:28;3.93;;;1.50;;
20488;SDS011;10403;54.092;12.122;2022-09-02T02:58:57;1.83;;;1.20;;
20488;SDS011;10403;54.092;12.122;2022-09-02T03:01:26;2.27;;;1.20;;
20488;SDS011;10403;54.092;12.122;2022-09-02T03:03:56;7.10;;;1.60;;
20488;SDS011;10403;54.092;12.122;2022-09-02T03:06:24;1.43;;;1.10;;
20488;SDS011;10403;54.092;12.122;2022-09-02T03:08:52;2.87;;;1.30;;
20488;SDS011;10403;54.092;12.122;2022-09-02T03:11:19;1.93;;;1.10;;
20488;SDS011;10403;54.092;12.122;2022-09-02T03:13:51;6.87;;;1.03;;
20488;SDS011;10403;54.092;12.122;2022-09-02T03:16:18;1.70;;;1.37;;
20488;SDS011;10403;54.092;12.122;2022-09-02T03:18:48;2.63;;;1.40;;
20488;SDS011;10403;54.092;12.122;2022-09-02T03:21:16;3.37;;;1.33;;
20488;SDS011;10403;54.092;12.122;2022-09-02T03:23:44;2.67;;;1.50;;
20488;SDS011;10403;54.092;12.122;2022-09-02T03:26:17;2.63;;;1.30;;
20488;SDS011;10403;54.092;12.122;2022-09-02T03:28:49;2.63;;;1.20;;
20488;SDS011;10403;54.092;12.122;2022-09-02T03:31:18;2.67;;;1.40;;
20488;SDS011;10403;54.092;12.122;2022-09-02T03:33:49;2.70;;;1.30;;
20488;SDS011;10403;54.092;12.122;2022-09-02T03:36:17;3.97;;;1.37;;
20488;SDS011;10403;54.092;12.122;2022-09-02T03:38:51;2.80;;;1.80;;
20488;SDS011;10403;54.092;12.122;2022-09-02T03:41:19;4.77;;;1.30;;
20488;SDS011;10403;54.092;12.122;2022-09-02T03:43:46;2.63;;;1.30;;
20488;SDS011;10403;54.092;12.122;2022-09-02T03:46:14;2.37;;;1.40;;
20488;SDS011;10403;54.092;12.122;2022-09-02T03:48:43;3.60;;;1.53;;
20488;SDS011;10403;54.092;12.122;2022-09-02T03:51:10;5.30;;;1.70;;
20488;SDS011;10403;54.092;12.122;2022-09-02T03:53:38;3.60;;;1.40;;
20488;SDS011;10403;54.092;12.122;2022-09-02T03:56:06;2.83;;;1.40;;
20488;SDS011;10403;54.092;12.122;2022-09-02T03:58:38;2.37;;;1.57;;
20488;SDS011;10403;54.092;12.122;2022-09-02T04:01:12;4.83;;;1.93;;
20488;SDS011;10403;54.092;12.122;2022-09-02T04:03:45;2.90;;;1.70;;
20488;SDS011;10403;54.092;12.122;2022-09-02T04:06:13;3.87;;;1.30;;
20488;SDS011;10403;54.092;12.122;2022-09-02T04:08:43;2.10;;;1.40;;
20488;SDS011;10403;54.092;12.122;2022-09-02T04:11:15;2.47;;;1.50;;
20488;SDS011;10403;54.092;12.122;2022-09-02T04:13:46;2.17;;;1.37;;
20488;SDS011;10403;54.092;12.122;2022-09-02T04:16:16;2.87;;;1.50;;
20488;SDS011;10403;54.092;12.122;2022-09-02T04:18:55;6.77;;;1.60;;
20488;SDS011;10403;54.092;12.122;2022-09-02T04:21:27;3.67;;;1.60;;
20488;SDS011;10403;54.092;12.122;2022-09-02T04:23:58;8.93;;;1.70;;
20488;SDS011;10403;54.092;12.122;2022-09-02T04:26:26;2.47;;;1.60;;
20488;SDS011;10403;54.092;12.122;2022-09-02T04:28:53;3.87;;;1.67;;
20488;SDS011;10403;54.092;12.122;2022-09-02T04:31:21;2.53;;;1.40;;
20488;SDS011;10403;54.092;12.122;2022-09-02T04:33:51;6.63;;;1.80;;
20488;SDS011;10403;54.092;12.122;2022-09-02T04:36:19;4.67;;;1.60;;
20488;SDS011;10403;54.092;12.122;2022-09-02T04:38:49;8.07;;;1.90;;
20488;SDS011;10403;54.092;12.122;2022-09-02T04:41:20;3.73;;;1.73;;
20488;SDS011;10403;54.092;12.122;2022-09-02T04:43:52;5.10;;;2.10;;
20488;SDS011;10403;54.092;12.122;2022-09-02T04:46:22;3.33;;;1.60;;
20488;SDS011;10403;54.092;12.122;2022-09-02T04:48:59;4.27;;;2.13;;
20488;SDS011;10403;54.092;12.122;2022-09-02T04:51:27;3.10;;;1.67;;
20488;SDS011;10403;54.092;12.122;2022-09-02T04:53:55;6.80;;;1.70;;
20488;SDS011;10403;54.092;12.122;2022-09-02T04:56:23;3.50;;;2.00;;
20488;SDS011;10403;54.092;12.122;2022-09-02T04:58:55;3.00;;;1.60;;
20488;SDS011;10403;54.092;12.122;2022-09-02T05:01:23;4.07;;;1.73;;
20488;SDS011;10403;54.092;12.122;2022-09-02T05:03:55;4.50;;;1.70;;
20488;SDS011;10403;54.092;12.122;2022-09-02T05:06:23;4.00;;;1.50;;
20488;SDS011;10403;54.092;12.122;2022-09-02T05:08:53;3.63;;;1.67;;
20488;SDS011;10403;54.092;12.122;2022-09-02T05:11:24;4.00;;;1.60;;
20488;SDS011;10403;54.092;12.122;2022-09-02T05:13:56;2.90;;;1.77;;
20488;SDS011;10403;54.092;12.122;2022-09-02T05:16:28;5.20;;;1.57;;
20488;SDS011;10403;54.092;12.122;2022-09-02T05:19:03;3.00;;;1.50;;
20488;SDS011;10403;54.092;12.122;2022-09-02T05:21:32;10.03;;;2.30;;
20488;SDS011;10403;54.092;12.122;2022-09-02T05:23:59;4.80;;;1.90;;
20488;SDS011;10403;54.092;12.122;2022-09-02T05:26:27;3.13;;;1.77;;
20488;SDS011;10403;54.092;12.122;2022-09-02T05:28:54;5.07;;;1.93;;
20488;SDS011;10403;54.092;12.122;2022-09-02T05:31:21;5.73;;;1.90;;
20488;SDS011;10403;54.092;12.122;2022-09-02T05:33:49;4.17;;;2.00;;
20488;SDS011;10403;54.092;12.122;2022-09-02T05:36:18;8.80;;;2.30;;
20488;SDS011;10403;54.092;12.122;2022-09-02T05:38:48;2.47;;;1.90;;
20488;SDS011;10403;54.092;12.122;2022-09-02T05:41:18;3.33;;;1.80;;
20488;SDS011;10403;54.092;12.122;2022-09-02T05:43:50;5.97;;;1.67;;
20488;SDS011;10403;54.092;12.122;2022-09-02T05:46:22;5.03;;;1.70;;
20488;SDS011;10403;54.092;12.122;2022-09-02T05:48:52;4.93;;;2.23;;
20488;SDS011;10403;54.092;12.122;2022-09-02T05:51:40;4.97;;;1.77;;
20488;SDS011;10403;54.092;12.122;2022-09-02T05:54:14;2.70;;;1.63;;
20488;SDS011;10403;54.092;12.122;2022-09-02T05:56:53;2.50;;;1.57;;
20488;SDS011;10403;54.092;12.122;2022-09-02T05:59:25;4.77;;;1.80;;
20488;SDS011;10403;54.092;12.122;2022-09-02T06:01:55;3.63;;;1.80;;
20488;SDS011;10403;54.092;12.122;2022-09-02T06:04:25;4.00;;;1.90;;
20488;SDS011;10403;54.092;12.122;2022-09-02T06:06:52;7.40;;;1.50;;
20488;SDS011;10403;54.092;12.122;2022-09-02T06:09:20;4.33;;;1.93;;
20488;SDS011;10403;54.092;12.122;2022-09-02T06:11:50;5.57;;;2.00;;
20488;SDS011;10403;54.092;12.122;2022-09-02T06:14:19;4.23;;;1.97;;
20488;SDS011;10403;54.092;12.122;2022-09-02T06:16:50;4.27;;;2.07;;
20488;SDS011;10403;54.092;12.122;2022-09-02T06:19:20;5.50;;;1.60;;
20488;SDS011;10403;54.092;12.122;2022-09-02T06:21:50;8.00;;;1.77;;
20488;SDS011;10403;54.092;12.122;2022-09-02T06:24:19;6.10;;;1.83;;
20488;SDS011;10403;54.092;12.122;2022-09-02T06:26:47;4.27;;;1.20;;
20488;SDS011;10403;54.092;12.122;2022-09-02T06:29:14;5.57;;;1.50;;
20488;SDS011;10403;54.092;12.122;2022-09-02T06:31:42;2.20;;;1.50;;
20488;SDS011;10403;54.092;12.122;2022-09-02T06:34:14;7.67;;;1.87;;
20488;SDS011;10403;54.092;12.122;2022-09-02T06:36:47;3.00;;;1.43;;
20488;SDS011;10403;54.092;12.122;2022-09-02T06:39:17;1.10;;;0.90;;
20488;SDS011;10403;54.092;12.122;2022-09-02T06:41:47;3.30;;;1.60;;
20488;SDS011;10403;54.092;12.122;2022-09-02T06:44:15;2.40;;;1.70;;
20488;SDS011;10403;54.092;12.122;2022-09-02T06:46:48;7.20;;;1.90;;
20488;SDS011;10403;54.092;12.122;2022-09-02T06:49:23;3.00;;;1.47;;
20488;SDS011;10403;54.092;12.122;2022-09-02T06:51:52;2.63;;;1.50;;
20488;SDS011;10403;54.092;12.122;2022-09-02T06:54:22;4.63;;;1.10;;
20488;SDS011;10403;54.092;12.122;2022-09-02T06:56:50;2.37;;;1.17;;
20488;SDS011;10403;54.092;12.122;2022-09-02T06:59:18;5.63;;;1.80;;
20488;SDS011;10403;54.092;12.122;2022-09-02T07:01:47;6.23;;;2.27;;
20488;SDS011;10403;54.092;12.122;2022-09-02T07:04:15;45.83;;;3.77;;
20488;SDS011;10403;54.092;12.122;2022-09-02T07:07:03;26.70;;;2.87;;
20488;SDS011;10403;54.092;12.122;2022-09-02T07:09:32;33.53;;;4.73;;
20488;SDS011;10403;54.092;12.122;2022-09-02T07:12:00;32.33;;;3.67;;
20488;SDS011;10403;54.092;12.122;2022-09-02T07:14:34;7.27;;;1.97;;
20488;SDS011;10403;54.092;12.122;2022-09-02T07:17:08;4.17;;;1.23;;
20488;SDS011;10403;54.092;12.122;2022-09-02T07:19:43;2.93;;;1.30;;
20488;SDS011;10403;54.092;12.122;2022-09-02T07:22:10;1.23;;;1.07;;
20488;SDS011;10403;54.092;12.122;2022-09-02T07:24:40;2.57;;;1.13;;
20488;SDS011;10403;54.092;12.122;2022-09-02T07:27:07;1.97;;;1.30;;
20488;SDS011;10403;54.092;12.122;2022-09-02T07:29:36;1.73;;;0.97;;
20488;SDS011;10403;54.092;12.122;2022-09-02T07:32:04;2.70;;;1.30;;
20488;SDS011;10403;54.092;12.122;2022-09-02T07:34:31;7.00;;;1.07;;
20488;SDS011;10403;54.092;12.122;2022-09-02T07:36:59;1.67;;;0.90;;
20488;SDS011;10403;54.092;12.122;2022-09-02T07:39:31;1.40;;;0.80;;
20488;SDS011;10403;54.092;12.122;2022-09-02T07:41:58;2.93;;;1.27;;
20488;SDS011;10403;54.092;12.122;2022-09-02T07:44:27;3.00;;;1.17;;
20488;SDS011;10403;54.092;12.122;2022-09-02T07:46:54;1.43;;;0.90;;
20488;SDS011;10403;54.092;12.122;2022-09-02T07:49:21;1.53;;;0.90;;
20488;SDS011;10403;54.092;12.122;2022-09-02T07:51:50;1.87;;;1.10;;
20488;SDS011;10403;54.092;12.122;2022-09-02T07:54:18;4.50;;;1.00;;
20488;SDS011;10403;54.092;12.122;2022-09-02T07:56:49;3.03;;;1.10;;
20488;SDS011;10403;54.092;12.122;2022-09-02T07:59:17;2.13;;;0.93;;
20488;SDS011;10403;54.092;12.122;2022-09-02T08:01:47;2.53;;;0.90;;
20488;SDS011;10403;54.092;12.122;2022-09-02T08:04:15;2.73;;;1.20;;
20488;SDS011;10403;54.092;12.122;2022-09-02T08:06:46;3.30;;;0.90;;
20488;SDS011;10403;54.092;12.122;2022-09-02T08:09:13;5.20;;;1.30;;
20488;SDS011;10403;54.092;12.122;2022-09-02T08:11:42;1.37;;;0.87;;
20488;SDS011;10403;54.092;12.122;2022-09-02T08:14:13;3.37;;;0.90;;
20488;SDS011;10403;54.092;12.122;2022-09-02T08:16:46;3.67;;;1.07;;
20488;SDS011;10403;54.092;12.122;2022-09-02T08:19:14;1.63;;;1.13;;
20488;SDS011;10403;54.092;12.122;2022-09-02T08:21:42;1.30;;;0.70;;
20488;SDS011;10403;54.092;12.122;2022-09-02T08:24:09;2.80;;;0.90;;
20488;SDS011;10403;54.092;12.122;2022-09-02T08:26:37;5.60;;;1.10;;
20488;SDS011;10403;54.092;12.122;2022-09-02T08:29:04;5.97;;;1.20;;
20488;SDS011;10403;54.092;12.122;2022-09-02T08:31:35;3.10;;;1.27;;
20488;SDS011;10403;54.092;12.122;2022-09-02T08:34:10;3.20;;;1.00;;
20488;SDS011;10403;54.092;12.122;2022-09-02T08:36:39;2.93;;;0.90;;
20488;SDS011;10403;54.092;12.122;2022-09-02T08:39:22;1.70;;;1.00;;
20488;SDS011;10403;54.092;12.122;2022-09-02T08:41:58;1.57;;;0.90;;
20488;SDS011;10403;54.092;12.122;2022-09-02T08:44:48;1.33;;;0.80;;
20488;SDS011;10403;54.092;12.122;2022-09-02T08:47:23;1.50;;;0.90;;
20488;SDS011;10403;54.092;12.122;2022-09-02T08:49:58;1.60;;;1.00;;
20488;SDS011;10403;54.092;12.122;2022-09-02T08:52:38;8.63;;;1.50;;
20488;SDS011;10403;54.092;12.122;2022-09-02T08:55:20;6.97;;;1.97;;
20488;SDS011;10403;54.092;12.122;2022-09-02T08:58:08;3.53;;;1.00;;
20488;SDS011;10403;54.092;12.122;2022-09-02T09:00:38;9.80;;;1.13;;
20488;SDS011;10403;54.092;12.122;2022-09-02T09:06:06;2.13;;;1.00;;
20488;SDS011;10403;54.092;12.122;2022-09-02T09:20:05;2.27;;;1.10;;
20488;SDS011;10403;54.092;12.122;2022-09-02T09:22:42;1.30;;;0.90;;
20488;SDS011;10403;54.092;12.122;2022-09-02T09:25:13;3.33;;;0.85;;
20488;SDS011;10403;54.092;12.122;2022-09-02T09:27:42;1.30;;;0.90;;
20488;SDS011;10403;54.092;12.122;2022-09-02T09:30:11;2.83;;;0.90;;
20488;SDS011;10403;54.092;12.122;2022-09-02T09:32:45;2.47;;;1.00;;
20488;SDS011;10403;54.092;12.122;2022-09-02T09:35:20;7.05;;;1.38;;
20488;SDS011;10403;54.092;12.122;2022-09-02T09:37:49;9.45;;;1.10;;
20488;SDS011;10403;54.092;12.122;2022-09-02T09:40:25;8.70;;;1.38;;
20488;SDS011;10403;54.092;12.122;2022-09-02T09:45:49;4.05;;;1.10;;
20488;SDS011;10403;54.092;12.122;2022-09-02T09:56:03;1.63;;;0.80;;
20488;SDS011;10403;54.092;12.122;2022-09-02T09:58:47;2.23;;;0.90;;
20488;SDS011;10403;54.092;12.122;2022-09-02T10:07:09;4.28;;;0.90;;
20488;SDS011;10403;54.092;12.122;2022-09-02T10:09:42;2.90;;;1.00;;
20488;SDS011;10403;54.092;12.122;2022-09-02T10:12:10;2.17;;;0.82;;
20488;SDS011;10403;54.092;12.122;2022-09-02T10:14:43;1.98;;;0.73;;
20488;SDS011;10403;54.092;12.122;2022-09-02T10:20:20;2.65;;;0.90;;
20488;SDS011;10403;54.092;12.122;2022-09-02T10:26:28;2.88;;;1.38;;
20488;SDS011;10403;54.092;12.122;2022-09-02T10:40:29;5.63;;;0.90;;
20488;SDS011;10403;54.092;12.122;2022-09-02T10:43:17;1.08;;;0.90;;
20488;SDS011;10403;54.092;12.122;2022-09-02T10:46:23;2.75;;;0.90;;
20488;SDS011;10403;54.092;12.122;2022-09-02T10:49:11;2.53;;;0.70;;
20488;SDS011;10403;54.092;12.122;2022-09-02T11:01:36;1.42;;;0.70;;
20488;SDS011;10403;54.092;12.122;2022-09-02T11:04:24;3.17;;;0.80;;
20488;SDS011;10403;54.092;12.122;2022-09-02T11:07:15;2.13;;;0.80;;
20488;SDS011;10403;54.092;12.122;2022-09-02T11:10:24;2.67;;;1.17;;
20488;SDS011;10403;54.092;12.122;2022-09-02T11:18:24;2.30;;;0.77;;
20488;SDS011;10403;54.092;12.122;2022-09-02T11:21:37;3.00;;;1.13;;
20488;SDS011;10403;54.092;12.122;2022-09-02T11:24:47;18.48;;;1.42;;
20488;SDS011;10403;54.092;12.122;2022-09-02T11:27:36;1.27;;;0.90;;
20488;SDS011;10403;54.092;12.122;2022-09-02T11:30:42;2.10;;;1.30;;
20488;SDS011;10403;54.092;12.122;2022-09-02T11:37:05;2.63;;;1.00;;
20488;SDS011;10403;54.092;12.122;2022-09-02T11:39:40;2.00;;;1.13;;
20488;SDS011;10403;54.092;12.122;2022-09-02T11:48:49;1.63;;;0.98;;
20488;SDS011;10403;54.092;12.122;2022-09-02T11:51:57;1.58;;;0.90;;
20488;SDS011;10403;54.092;12.122;2022-09-02T11:54:34;4.20;;;1.00;;
20488;SDS011;10403;54.092;12.122;2022-09-02T11:57:21;1.77;;;0.75;;
20488;SDS011;10403;54.092;12.122;2022-09-02T12:09:59;2.25;;;1.13;;
20488;SDS011;10403;54.092;12.122;2022-09-02T12:20:10;3.38;;;1.10;;
20488;SDS011;10403;54.092;12.122;2022-09-02T12:26:29;1.70;;;1.00;;
20488;SDS011;10403;54.092;12.122;2022-09-02T12:31:47;2.00;;;1.10;;
20488;SDS011;10403;54.092;12.122;2022-09-02T12:44:43;1.45;;;0.73;;
20488;SDS011;10403;54.092;12.122;2022-09-02T12:50:27;0.98;;;0.63;;
20488;SDS011;10403;54.092;12.122;2022-09-02T12:53:13;3.63;;;0.73;;
20488;SDS011;10403;54.092;12.122;2022-09-02T12:56:01;1.60;;;0.80;;
20488;SDS011;10403;54.092;12.122;2022-09-02T12:58:38;2.47;;;0.90;;
20488;SDS011;10403;54.092;12.122;2022-09-02T13:01:16;3.88;;;1.00;;
20488;SDS011;10403;54.092;12.122;2022-09-02T13:12:40;1.20;;;0.70;;
20488;SDS011;10403;54.092;12.122;2022-09-02T13:24:59;1.73;;;1.08;;
20488;SDS011;10403;54.092;12.122;2022-09-02T13:28:01;3.55;;;0.90;;
20488;SDS011;10403;54.092;12.122;2022-09-02T13:34:03;1.05;;;0.70;;
20488;SDS011;10403;54.092;12.122;2022-09-02T13:36:37;1.52;;;0.73;;
20488;SDS011;10403;54.092;12.122;2022-09-02T13:39:19;8.05;;;1.20;;
20488;SDS011;10403;54.092;12.122;2022-09-02T13:41:51;4.15;;;1.00;;
20488;SDS011;10403;54.092;12.122;2022-09-02T13:44:20;2.00;;;1.20;;
20488;SDS011;10403;54.092;12.122;2022-09-02T13:46:51;3.13;;;0.90;;
20488;SDS011;10403;54.092;12.122;2022-09-02T13:49:39;3.50;;;1.23;;
20488;SDS011;10403;54.092;12.122;2022-09-02T13:52:12;1.75;;;1.10;;
20488;SDS011;10403;54.092;12.122;2022-09-02T13:55:09;1.38;;;0.90;;
20488;SDS011;10403;54.092;12.122;2022-09-02T13:57:44;3.95;;;0.98;;
20488;SDS011;10403;54.092;12.122;2022-09-02T14:00:37;2.65;;;1.10;;
20488;SDS011;10403;54.092;12.122;2022-09-02T14:03:08;2.47;;;0.90;;
20488;SDS011;10403;54.092;12.122;2022-09-02T14:05:42;3.78;;;1.08;;
20488;SDS011;10403;54.092;12.122;2022-09-02T14:08:14;3.22;;;0.80;;
20488;SDS011;10403;54.092;12.122;2022-09-02T14:10:47;1.40;;;1.10;;
20488;SDS011;10403;54.092;12.122;2022-09-02T14:13:20;2.63;;;0.90;;
20488;SDS011;10403;54.092;12.122;2022-09-02T14:15:48;2.42;;;0.80;;
20488;SDS011;10403;54.092;12.122;2022-09-02T14:18:16;2.83;;;0.80;;
20488;SDS011;10403;54.092;12.122;2022-09-02T14:20:59;3.55;;;0.80;;
20488;SDS011;10403;54.092;12.122;2022-09-02T14:23:48;1.67;;;1.08;;
20488;SDS011;10403;54.092;12.122;2022-09-02T14:26:36;2.65;;;1.10;;
20488;SDS011;10403;54.092;12.122;2022-09-02T14:29:15;2.28;;;0.85;;
20488;SDS011;10403;54.092;12.122;2022-09-02T14:31:45;2.80;;;1.00;;
20488;SDS011;10403;54.092;12.122;2022-09-02T14:34:35;1.98;;;1.02;;
20488;SDS011;10403;54.092;12.122;2022-09-02T14:37:45;2.03;;;0.73;;
20488;SDS011;10403;54.092;12.122;2022-09-02T14:40:12;1.50;;;0.70;;
20488;SDS011;10403;54.092;12.122;2022-09-02T14:42:44;5.97;;;0.80;;
20488;SDS011;10403;54.092;12.122;2022-09-02T14:45:27;1.80;;;0.70;;
20488;SDS011;10403;54.092;12.122;2022-09-02T14:48:00;1.33;;;0.80;;
20488;SDS011;10403;54.092;12.122;2022-09-02T14:50:42;1.25;;;0.88;;
20488;SDS011;10403;54.092;12.122;2022-09-02T14:53:09;2.83;;;1.05;;
20488;SDS011;10403;54.092;12.122;2022-09-02T14:55:48;2.00;;;1.00;;
20488;SDS011;10403;54.092;12.122;2022-09-02T14:58:21;2.83;;;1.20;;
20488;SDS011;10403;54.092;12.122;2022-09-02T15:00:57;3.97;;;1.35;;
20488;SDS011;10403;54.092;12.122;2022-09-02T15:03:27;1.85;;;0.90;;
20488;SDS011;10403;54.092;12.122;2022-09-02T15:05:56;2.05;;;1.17;;
20488;SDS011;10403;54.092;12.122;2022-09-02T15:08:23;1.02;;;0.80;;
20488;SDS011;10403;54.092;12.122;2022-09-02T15:10:51;2.55;;;1.00;;
20488;SDS011;10403;54.092;12.122;2022-09-02T15:13:24;2.30;;;1.13;;
20488;SDS011;10403;54.092;12.122;2022-09-02T15:15:57;4.68;;;1.00;;
20488;SDS011;10403;54.092;12.122;2022-09-02T15:18:25;2.38;;;0.98;;
20488;SDS011;10403;54.092;12.122;2022-09-02T15:20:55;3.30;;;1.10;;
20488;SDS011;10403;54.092;12.122;2022-09-02T15:23:23;3.20;;;0.75;;
20488;SDS011;10403;54.092;12.122;2022-09-02T15:25:52;1.83;;;0.82;;
20488;SDS011;10403;54.092;12.122;2022-09-02T15:28:20;2.95;;;0.90;;
20488;SDS011;10403;54.092;12.122;2022-09-02T15:30:47;3.38;;;1.00;;
20488;SDS011;10403;54.092;12.122;2022-09-02T15:33:14;1.98;;;1.20;;
20488;SDS011;10403;54.092;12.122;2022-09-02T15:35:45;4.03;;;1.13;;
20488;SDS011;10403;54.092;12.122;2022-09-02T15:38:12;2.20;;;1.05;;
20488;SDS011;10403;54.092;12.122;2022-09-02T15:40:41;1.02;;;0.90;;
20488;SDS011;10403;54.092;12.122;2022-09-02T15:43:11;3.05;;;1.15;;
20488;SDS011;10403;54.092;12.122;2022-09-02T15:45:45;3.65;;;1.35;;
20488;SDS011;10403;54.092;12.122;2022-09-02T15:48:16;3.40;;;1.10;;
20488;SDS011;10403;54.092;12.122;2022-09-02T15:50:43;2.97;;;1.10;;
20488;SDS011;10403;54.092;12.122;2022-09-02T15:53:13;2.58;;;1.45;;
20488;SDS011;10403;54.092;12.122;2022-09-02T15:55:41;1.83;;;1.17;;
20488;SDS011;10403;54.092;12.122;2022-09-02T15:58:08;3.33;;;1.33;;
20488;SDS011;10403;54.092;12.122;2022-09-02T16:00:35;2.17;;;0.90;;
20488;SDS011;10403;54.092;12.122;2022-09-02T16:03:02;5.90;;;1.23;;
20488;SDS011;10403;54.092;12.122;2022-09-02T16:05:30;3.53;;;1.25;;
20488;SDS011;10403;54.092;12.122;2022-09-02T16:07:57;3.45;;;1.00;;
20488;SDS011;10403;54.092;12.122;2022-09-02T16:10:25;2.78;;;1.00;;
20488;SDS011;10403;54.092;12.122;2022-09-02T16:12:52;3.45;;;1.30;;
20488;SDS011;10403;54.092;12.122;2022-09-02T16:15:19;1.55;;;1.10;;
20488;SDS011;10403;54.092;12.122;2022-09-02T16:17:46;3.97;;;1.27;;
20488;SDS011;10403;54.092;12.122;2022-09-02T16:20:15;1.50;;;0.90;;
20488;SDS011;10403;54.092;12.122;2022-09-02T16:22:46;3.85;;;1.30;;
20488;SDS011;10403;54.092;12.122;2022-09-02T16:25:13;2.90;;;1.38;;
20488;SDS011;10403;54.092;12.122;2022-09-02T16:27:40;2.83;;;1.60;;
20488;SDS011;10403;54.092;12.122;2022-09-02T16:30:21;1.52;;;0.88;;
20488;SDS011;10403;54.092;12.122;2022-09-02T16:32:49;4.45;;;1.30;;
20488;SDS011;10403;54.092;12.122;2022-09-02T16:35:17;4.43;;;1.02;;
20488;SDS011;10403;54.092;12.122;2022-09-02T16:37:44;3.30;;;1.08;;
20488;SDS011;10403;54.092;12.122;2022-09-02T16:40:11;4.72;;;1.08;;
20488;SDS011;10403;54.092;12.122;2022-09-02T16:42:46;4.05;;;0.95;;
20488;SDS011;10403;54.092;12.122;2022-09-02T16:45:13;4.05;;;1.42;;
20488;SDS011;10403;54.092;12.122;2022-09-02T16:47:40;6.13;;;1.02;;
20488;SDS011;10403;54.092;12.122;2022-09-02T16:50:07;2.38;;;1.15;;
20488;SDS011;10403;54.092;12.122;2022-09-02T16:52:37;2.10;;;1.33;;
20488;SDS011;10403;54.092;12.122;2022-09-02T16:55:06;8.57;;;1.50;;
20488;SDS011;10403;54.092;12.122;2022-09-02T16:57:33;2.72;;;1.15;;
20488;SDS011;10403;54.092;12.122;2022-09-02T17:00:00;3.33;;;1.63;;
20488;SDS011;10403;54.092;12.122;2022-09-02T17:02:29;2.42;;;1.00;;
20488;SDS011;10403;54.092;12.122;2022-09-02T17:04:56;2.85;;;1.20;;
20488;SDS011;10403;54.092;12.122;2022-09-02T17:07:23;3.17;;;1.65;;
20488;SDS011;10403;54.092;12.122;2022-09-02T17:09:51;7.88;;;1.98;;
20488;SDS011;10403;54.092;12.122;2022-09-02T17:12:18;3.15;;;1.38;;
20488;SDS011;10403;54.092;12.122;2022-09-02T17:14:45;3.30;;;1.70;;
20488;SDS011;10403;54.092;12.122;2022-09-02T17:17:12;4.90;;;1.70;;
20488;SDS011;10403;54.092;12.122;2022-09-02T17:19:42;3.55;;;1.70;;
20488;SDS011;10403;54.092;12.122;2022-09-02T17:22:09;6.00;;;1.52;;